createdAt,value
2019-05-01T00:00:46.489Z,27.90
2019-05-01T00:03:19.692Z,28.92
2019-05-01T00:05:58.844Z,31.52
2019-05-01T00:08:27.561Z,29.77
2019-05-01T00:10:57.049Z,30.77
2019-05-01T00:13:25.553Z,29.15
2019-05-01T00:15:55.023Z,28.87
2019-05-01T00:18:23.749Z,24.35
2019-05-01T00:20:52.206Z,24.72
2019-05-01T00:23:20.604Z,27.25
2019-05-01T00:25:49.299Z,28.50
2019-05-01T00:28:17.992Z,26.15
2019-05-01T00:30:46.662Z,30.55
2019-05-01T00:33:15.144Z,28.10
2019-05-01T00:35:43.597Z,28.98
2019-05-01T00:38:12.101Z,28.55
2019-05-01T00:40:40.568Z,28.15
2019-05-01T00:43:09.028Z,27.77
2019-05-01T00:45:37.503Z,30.00
2019-05-01T00:48:05.936Z,26.20
2019-05-01T00:50:34.364Z,30.12
2019-05-01T00:53:03.265Z,29.30
2019-05-01T00:55:39.396Z,30.25
2019-05-01T00:58:18.378Z,29.80
2019-05-01T01:01:04.675Z,29.32
2019-05-01T01:03:33.426Z,28.00
2019-05-01T01:06:02.263Z,31.82
2019-05-01T01:08:30.756Z,29.20
2019-05-01T01:10:59.217Z,26.97
2019-05-01T01:13:27.739Z,28.20
2019-05-01T01:15:56.200Z,29.45
2019-05-01T01:18:24.724Z,26.07
2019-05-01T01:20:53.545Z,25.97
2019-05-01T01:23:22.559Z,29.25
2019-05-01T01:25:51.558Z,28.67
2019-05-01T01:28:20.240Z,27.73
2019-05-01T01:30:55.991Z,26.23
2019-05-01T01:33:19.294Z,26.05
2019-05-01T01:35:47.874Z,26.40
2019-05-01T01:38:16.381Z,25.00
2019-05-01T01:40:45.087Z,27.42
2019-05-01T01:43:31.635Z,27.02
2019-05-01T01:46:01.941Z,31.00
2019-05-01T01:48:30.525Z,25.75
2019-05-01T01:50:59.321Z,28.77
2019-05-01T01:53:27.990Z,27.95
2019-05-01T01:55:56.750Z,29.70
2019-05-01T01:58:26.286Z,26.42
2019-05-01T02:01:08.737Z,28.07
2019-05-01T02:03:28.504Z,38.85
2019-05-01T02:05:56.994Z,28.32
2019-05-01T02:08:25.578Z,31.33
2019-05-01T02:10:54.143Z,29.85
2019-05-01T02:13:22.974Z,29.40
2019-05-01T02:15:51.539Z,27.37
2019-05-01T02:18:20.031Z,31.40
2019-05-01T02:20:48.517Z,31.07
2019-05-01T02:23:16.937Z,28.02
2019-05-01T02:25:45.463Z,29.30
2019-05-01T02:28:28.329Z,29.10
2019-05-01T02:31:27.569Z,35.83
2019-05-01T02:33:48.265Z,28.95
2019-05-01T02:36:19.220Z,31.57
2019-05-01T02:38:50.065Z,29.85
2019-05-01T02:41:20.715Z,31.73
2019-05-01T02:43:51.982Z,35.45
2019-05-01T02:46:22.936Z,28.62
2019-05-01T02:49:12.488Z,26.90
2019-05-01T02:51:43.082Z,29.05
2019-05-01T02:54:13.788Z,32.67
2019-05-01T02:56:46.017Z,28.50
2019-05-01T02:59:15.305Z,28.50
2019-05-01T03:01:47.862Z,30.32
2019-05-01T03:04:15.437Z,29.40
2019-05-01T03:06:44.351Z,29.90
2019-05-01T03:09:13.447Z,26.55
2019-05-01T03:11:44.188Z,33.98
2019-05-01T03:14:15.686Z,29.75
2019-05-01T03:16:46.025Z,27.80
2019-05-01T03:19:24.888Z,31.00
2019-05-01T03:21:58.062Z,27.62
2019-05-01T03:24:28.388Z,27.17
2019-05-01T03:26:57.967Z,27.82
2019-05-01T03:29:26.550Z,28.57
2019-05-01T03:32:15.717Z,27.40
2019-05-01T03:34:25.572Z,27.13
2019-05-01T03:36:54.638Z,26.93
2019-05-01T03:39:24.018Z,27.50
2019-05-01T03:41:53.635Z,27.73
2019-05-01T03:44:22.130Z,28.27
2019-05-01T03:46:51.009Z,31.45
2019-05-01T03:49:19.710Z,28.38
2019-05-01T03:51:48.274Z,25.77
2019-05-01T03:54:17.068Z,26.07
2019-05-01T03:56:45.674Z,27.65
2019-05-01T03:59:14.346Z,28.07
2019-05-01T04:01:44.585Z,27.37
2019-05-01T04:04:15.138Z,26.97
2019-05-01T04:06:43.708Z,26.55
2019-05-01T04:09:12.934Z,28.15
2019-05-01T04:11:41.508Z,28.02
2019-05-01T04:14:10.372Z,30.23
2019-05-01T04:16:39.963Z,26.65
2019-05-01T04:19:08.517Z,25.82
2019-05-01T04:21:44.799Z,33.53
2019-05-01T04:24:13.442Z,25.60
2019-05-01T04:26:41.995Z,27.35
2019-05-01T04:29:14.926Z,25.95
2019-05-01T04:31:54.213Z,30.15
2019-05-01T04:34:42.554Z,27.52
2019-05-01T04:37:13.369Z,26.07
2019-05-01T04:39:42.153Z,24.70
2019-05-01T04:42:10.761Z,25.68
2019-05-01T04:44:39.437Z,24.30
2019-05-01T04:47:08.074Z,23.00
2019-05-01T04:49:36.935Z,23.90
2019-05-01T04:52:05.691Z,22.05
2019-05-01T04:54:34.271Z,28.30
2019-05-01T04:57:03.048Z,29.48
2019-05-01T04:59:31.624Z,25.57
2019-05-01T05:02:02.252Z,26.62
2019-05-01T05:04:30.896Z,24.98
2019-05-01T05:07:00.474Z,26.12
2019-05-01T05:09:39.520Z,28.38
2019-05-01T05:12:10.439Z,21.65
2019-05-01T05:14:44.056Z,24.40
2019-05-01T05:17:14.304Z,26.55
2019-05-01T05:19:43.056Z,26.90
2019-05-01T05:22:11.844Z,26.25
2019-05-01T05:24:40.524Z,23.15
2019-05-01T05:27:10.524Z,22.67
2019-05-01T05:29:39.084Z,20.32
2019-05-01T05:32:08.387Z,21.52
2019-05-01T05:34:38.431Z,18.98
2019-05-01T05:37:15.993Z,19.23
2019-05-01T05:39:47.473Z,20.75
2019-05-01T05:42:16.343Z,18.12
2019-05-01T05:44:47.105Z,20.43
2019-05-01T05:47:15.787Z,18.00
2019-05-01T05:49:45.282Z,18.12
2019-05-01T05:52:35.793Z,18.87
2019-05-01T05:55:06.715Z,21.35
2019-05-01T05:57:43.116Z,18.17
2019-05-01T06:00:20.665Z,21.27
2019-05-01T06:02:54.052Z,15.13
2019-05-01T06:05:43.295Z,15.53
2019-05-01T06:08:16.331Z,20.70
2019-05-01T06:10:48.534Z,22.52
2019-05-01T06:13:35.370Z,17.42
2019-05-01T06:16:05.576Z,17.85
2019-05-01T06:18:48.284Z,18.67
2019-05-01T06:21:19.164Z,17.92
2019-05-01T06:24:06.611Z,15.20
2019-05-01T06:26:37.421Z,15.78
2019-05-01T06:29:05.396Z,15.95
2019-05-01T06:31:34.966Z,18.23
2019-05-01T06:34:03.841Z,15.08
2019-05-01T06:36:33.331Z,14.95
2019-05-01T06:39:06.844Z,15.90
2019-05-01T06:41:42.314Z,17.40
2019-05-01T06:44:12.678Z,17.50
2019-05-01T06:46:52.706Z,19.20
2019-05-01T06:49:35.231Z,18.50
2019-05-01T06:52:06.238Z,19.55
2019-05-01T06:54:36.422Z,19.45
2019-05-01T06:57:05.697Z,17.65
2019-05-01T06:59:37.483Z,19.10
2019-05-01T07:02:07.660Z,21.73
2019-05-01T07:04:37.766Z,19.40
2019-05-01T07:07:09.864Z,18.82
2019-05-01T07:09:38.810Z,20.27
2019-05-01T07:12:09.436Z,18.60
2019-05-01T07:14:38.513Z,17.92
2019-05-01T07:17:09.028Z,17.82
2019-05-01T07:19:57.668Z,17.10
2019-05-01T07:22:26.254Z,16.67
2019-05-01T07:24:58.885Z,18.32
2019-05-01T07:27:25.480Z,16.73
2019-05-01T07:29:56.341Z,17.92
2019-05-01T07:32:24.834Z,20.00
2019-05-01T07:34:56.933Z,19.62
2019-05-01T07:37:25.842Z,19.60
2019-05-01T07:39:54.110Z,17.95
2019-05-01T07:42:26.777Z,19.00
2019-05-01T07:44:58.615Z,17.75
2019-05-01T07:47:32.027Z,16.70
2019-05-01T07:50:03.633Z,18.87
2019-05-01T07:52:32.767Z,18.98
2019-05-01T07:55:01.338Z,18.87
2019-05-01T07:57:34.239Z,19.37
2019-05-01T08:00:03.728Z,17.52
2019-05-01T08:02:33.032Z,16.75
2019-05-01T08:05:04.973Z,16.02
2019-05-01T08:07:33.591Z,17.50
2019-05-01T08:10:02.507Z,16.60
2019-05-01T08:12:31.006Z,16.05
2019-05-01T08:14:59.508Z,14.25
2019-05-01T08:17:29.680Z,14.40
2019-05-01T08:20:02.922Z,15.58
2019-05-01T08:22:37.123Z,12.63
2019-05-01T08:25:03.387Z,12.33
2019-05-01T08:27:56.268Z,14.10
2019-05-01T08:30:26.053Z,12.40
2019-05-01T08:33:02.357Z,11.20
2019-05-01T08:35:31.682Z,11.18
2019-05-01T08:38:01.169Z,11.12
2019-05-01T08:40:29.766Z,11.22
2019-05-01T08:42:58.241Z,12.30
2019-05-01T08:45:42.383Z,10.10
2019-05-01T08:48:12.024Z,9.18
2019-05-01T08:50:40.553Z,10.85
2019-05-01T08:53:09.205Z,12.43
2019-05-01T08:55:39.801Z,10.15
2019-05-01T08:58:08.805Z,10.75
2019-05-01T09:00:41.178Z,10.50
2019-05-01T09:03:08.940Z,10.50
2019-05-01T09:05:37.464Z,8.80
2019-05-01T09:08:06.131Z,9.23
2019-05-01T09:10:34.635Z,10.53
2019-05-01T09:13:03.167Z,10.00
2019-05-01T09:15:31.722Z,9.15
2019-05-01T09:18:00.172Z,9.80
2019-05-01T09:20:29.925Z,10.40
2019-05-01T09:22:58.435Z,10.08
2019-05-01T09:25:30.962Z,10.35
2019-05-01T09:28:05.696Z,12.07
2019-05-01T09:30:41.843Z,11.22
2019-05-01T09:33:10.699Z,9.70
2019-05-01T09:35:40.305Z,10.23
2019-05-01T09:38:09.481Z,10.68
2019-05-01T09:40:38.121Z,10.38
2019-05-01T09:43:06.648Z,11.10
2019-05-01T09:45:35.278Z,11.78
2019-05-01T09:48:04.318Z,10.18
2019-05-01T09:50:34.559Z,10.80
2019-05-01T09:53:19.721Z,9.90
2019-05-01T09:55:52.722Z,10.40
2019-05-01T09:58:21.226Z,10.60
2019-05-01T10:00:52.812Z,10.25
2019-05-01T10:03:21.673Z,10.40
2019-05-01T10:05:50.103Z,11.00
2019-05-01T10:08:18.666Z,10.30
2019-05-01T10:10:47.323Z,11.22
2019-05-01T10:13:17.622Z,10.80
2019-05-01T10:15:46.074Z,12.18
2019-05-01T10:18:14.522Z,14.30
2019-05-01T10:20:42.952Z,10.28
2019-05-01T10:23:13.244Z,15.20
2019-05-01T10:25:47.922Z,16.42
2019-05-01T10:28:18.030Z,10.50
2019-05-01T10:30:48.131Z,11.48
2019-05-01T10:33:21.009Z,16.95
2019-05-01T10:35:53.701Z,11.40
2019-05-01T10:38:22.205Z,12.70
2019-05-01T10:40:50.705Z,10.30
2019-05-01T10:43:19.195Z,13.30
2019-05-01T10:45:47.706Z,11.10
2019-05-01T10:48:16.192Z,10.98
2019-05-01T10:50:44.645Z,10.53
2019-05-01T10:53:13.070Z,10.48
2019-05-01T10:55:41.524Z,11.95
2019-05-01T10:58:12.722Z,10.88
2019-05-01T11:00:42.054Z,10.72
2019-05-01T11:03:10.776Z,10.63
2019-05-01T11:05:39.282Z,13.65
2019-05-01T11:08:07.873Z,10.55
2019-05-01T11:10:36.288Z,12.33
2019-05-01T11:13:07.656Z,9.15
2019-05-01T11:15:34.979Z,9.80
2019-05-01T11:18:03.407Z,11.83
2019-05-01T11:20:31.864Z,10.40
2019-05-01T11:23:00.289Z,11.80
2019-05-01T11:25:29.187Z,10.28
2019-05-01T11:27:57.632Z,12.28
2019-05-01T11:30:26.232Z,11.38
2019-05-01T11:33:05.305Z,10.30
2019-05-01T11:35:51.750Z,10.32
2019-05-01T11:38:24.896Z,8.85
2019-05-01T11:40:54.966Z,9.53
2019-05-01T11:43:23.415Z,11.00
2019-05-01T11:45:51.968Z,12.00
2019-05-01T11:48:20.392Z,10.45
2019-05-01T11:50:48.926Z,10.82
2019-05-01T11:53:17.361Z,10.13
2019-05-01T11:55:45.874Z,10.50
2019-05-01T11:58:14.323Z,9.25
2019-05-01T12:00:44.402Z,12.05
2019-05-01T12:03:12.926Z,12.15
2019-05-01T12:05:41.430Z,10.50
2019-05-01T12:08:10.035Z,9.93
2019-05-01T12:10:38.464Z,9.65
2019-05-01T12:13:06.948Z,9.58
2019-05-01T12:15:35.482Z,8.35
2019-05-01T12:18:04.005Z,9.43
2019-05-01T12:20:32.543Z,8.90
2019-05-01T12:23:00.981Z,9.00
2019-05-01T12:25:29.468Z,8.53
2019-05-01T12:27:58.088Z,7.90
2019-05-01T12:30:26.588Z,8.40
2019-05-01T12:32:55.097Z,8.73
2019-05-01T12:35:23.665Z,9.48
2019-05-01T12:37:55.462Z,8.18
2019-05-01T12:40:24.290Z,11.55
2019-05-01T12:42:52.718Z,8.50
2019-05-01T12:45:21.572Z,9.05
2019-05-01T12:47:51.696Z,9.90
2019-05-01T12:50:20.370Z,8.30
2019-05-01T12:52:53.545Z,10.25
2019-05-01T12:55:39.518Z,8.00
2019-05-01T12:58:08.160Z,9.38
2019-05-01T13:00:50.046Z,10.30
2019-05-01T13:03:18.515Z,8.85
2019-05-01T13:05:47.035Z,9.68
2019-05-01T13:08:15.520Z,9.03
2019-05-01T13:10:44.117Z,10.60
2019-05-01T13:13:12.645Z,8.70
2019-05-01T13:15:41.138Z,7.95
2019-05-01T13:18:09.660Z,8.70
2019-05-01T13:20:38.193Z,7.97
2019-05-01T13:23:06.694Z,8.43
2019-05-01T13:25:35.142Z,8.40
2019-05-01T13:28:08.818Z,8.00
2019-05-01T13:30:38.939Z,9.18
2019-05-01T13:33:07.400Z,10.25
2019-05-01T13:35:35.964Z,9.45
2019-05-01T13:38:04.618Z,9.35
2019-05-01T13:40:33.117Z,8.80
2019-05-01T13:43:01.633Z,7.30
2019-05-01T13:45:30.458Z,8.55
2019-05-01T13:47:59.925Z,9.75
2019-05-01T13:50:28.443Z,9.28
2019-05-01T13:52:56.927Z,11.35
2019-05-01T13:55:25.424Z,7.97
2019-05-01T13:57:53.897Z,11.30
2019-05-01T14:00:23.234Z,8.23
2019-05-01T14:02:51.814Z,9.18
2019-05-01T14:05:20.625Z,10.93
2019-05-01T14:07:49.062Z,8.98
2019-05-01T14:10:17.973Z,9.48
2019-05-01T14:12:46.418Z,8.48
2019-05-01T14:15:15.047Z,8.80
2019-05-01T14:17:43.588Z,9.65
2019-05-01T14:20:25.795Z,10.75
2019-05-01T14:23:11.246Z,10.23
2019-05-01T14:25:57.905Z,9.15
2019-05-01T14:28:26.439Z,7.10
2019-05-01T14:30:54.938Z,7.67
2019-05-01T14:33:23.456Z,8.88
2019-05-01T14:35:51.981Z,9.78
2019-05-01T14:38:20.588Z,9.85
2019-05-01T14:40:49.034Z,8.75
2019-05-01T14:43:17.531Z,7.60
2019-05-01T14:45:46.051Z,7.90
2019-05-01T14:48:14.546Z,7.12
2019-05-01T14:50:43.074Z,8.08
2019-05-01T14:53:11.655Z,8.08
2019-05-01T14:55:40.209Z,6.62
2019-05-01T14:58:08.840Z,7.78
2019-05-01T15:00:37.427Z,9.95
2019-05-01T15:03:06.026Z,7.70
2019-05-01T15:05:35.039Z,7.50
2019-05-01T15:08:03.825Z,7.58
2019-05-01T15:10:32.316Z,9.70
2019-05-01T15:13:02.418Z,8.68
2019-05-01T15:15:38.027Z,9.18
2019-05-01T15:18:24.510Z,8.48
2019-05-01T15:20:53.006Z,9.58
2019-05-01T15:23:21.590Z,8.38
2019-05-01T15:25:50.096Z,8.98
2019-05-01T15:28:18.523Z,8.73
2019-05-01T15:30:46.969Z,9.63
2019-05-01T15:33:15.421Z,6.03
2019-05-01T15:35:43.878Z,7.08
2019-05-01T15:38:12.312Z,11.55
2019-05-01T15:40:57.652Z,7.85
2019-05-01T15:43:30.790Z,8.10
2019-05-01T15:45:59.550Z,7.12
2019-05-01T15:48:28.400Z,7.05
2019-05-01T15:50:56.934Z,6.62
2019-05-01T15:53:25.310Z,8.20
2019-05-01T15:55:53.760Z,7.60
2019-05-01T15:58:22.266Z,7.92
2019-05-01T16:00:51.030Z,10.65
2019-05-01T16:03:19.493Z,5.92
2019-05-01T16:05:48.064Z,8.23
2019-05-01T16:08:16.633Z,7.12
2019-05-01T16:10:54.149Z,7.58
2019-05-01T16:13:22.577Z,6.67
2019-05-01T16:15:51.111Z,6.37
2019-05-01T16:18:19.559Z,7.55
2019-05-01T16:20:47.980Z,7.67
2019-05-01T16:23:16.509Z,10.70
2019-05-01T16:25:45.043Z,7.83
2019-05-01T16:28:13.473Z,7.70
2019-05-01T16:30:41.907Z,7.92
2019-05-01T16:33:10.439Z,6.45
2019-05-01T16:35:38.901Z,7.58
2019-05-01T16:38:09.036Z,6.78
2019-05-01T16:40:42.146Z,7.30
2019-05-01T16:43:11.892Z,9.75
2019-05-01T16:45:40.388Z,8.65
2019-05-01T16:48:08.987Z,9.23
2019-05-01T16:50:37.472Z,8.68
2019-05-01T16:53:05.886Z,5.95
2019-05-01T16:55:34.415Z,6.58
2019-05-01T16:58:03.984Z,6.97
2019-05-01T17:01:03.196Z,6.55
2019-05-01T17:03:49.201Z,6.92
2019-05-01T17:06:31.195Z,7.40
2019-05-01T17:09:06.867Z,7.10
2019-05-01T17:11:35.973Z,7.80
2019-05-01T17:14:06.233Z,7.42
2019-05-01T17:16:34.826Z,6.75
2019-05-01T17:19:04.128Z,6.83
2019-05-01T17:21:32.559Z,6.78
2019-05-01T17:24:01.051Z,7.28
2019-05-01T17:26:29.571Z,6.67
2019-05-01T17:28:57.997Z,9.68
2019-05-01T17:31:28.099Z,7.28
2019-05-01T17:33:56.866Z,7.40
2019-05-01T17:36:25.581Z,8.13
2019-05-01T17:38:54.074Z,10.00
2019-05-01T17:41:26.550Z,6.78
2019-05-01T17:43:52.774Z,7.97
2019-05-01T17:46:21.374Z,7.30
2019-05-01T17:48:49.903Z,7.80
2019-05-01T17:51:19.976Z,6.87
2019-05-01T17:53:48.709Z,7.72
2019-05-01T17:56:20.557Z,7.67
2019-05-01T17:58:47.499Z,6.58
2019-05-01T18:01:20.677Z,7.25
2019-05-01T18:03:50.800Z,6.60
2019-05-01T18:06:21.032Z,7.33
2019-05-01T18:09:01.875Z,8.95
2019-05-01T18:11:19.815Z,8.38
2019-05-01T18:13:48.308Z,7.78
2019-05-01T18:16:16.826Z,7.67
2019-05-01T18:18:45.329Z,13.55
2019-05-01T18:21:14.288Z,7.35
2019-05-01T18:24:00.608Z,6.62
2019-05-01T18:26:43.439Z,7.22
2019-05-01T18:29:11.334Z,7.40
2019-05-01T18:31:39.757Z,9.43
2019-05-01T18:34:08.286Z,9.45
2019-05-01T18:36:38.368Z,7.83
2019-05-01T18:39:25.883Z,8.13
2019-05-01T18:41:55.199Z,9.43
2019-05-01T18:44:23.634Z,10.38
2019-05-01T18:46:52.305Z,7.10
2019-05-01T18:49:20.754Z,9.00
2019-05-01T18:51:49.215Z,6.85
2019-05-01T18:54:17.731Z,8.33
2019-05-01T18:56:46.263Z,8.08
2019-05-01T18:59:14.924Z,11.28
2019-05-01T19:01:43.927Z,11.75
2019-05-01T19:04:18.360Z,9.60
2019-05-01T19:06:45.147Z,10.32
2019-05-01T19:09:15.300Z,7.85
2019-05-01T19:11:43.917Z,9.65
2019-05-01T19:14:12.802Z,7.78
2019-05-01T19:16:45.351Z,10.20
2019-05-01T19:19:11.696Z,9.78
2019-05-01T19:21:41.914Z,9.28
2019-05-01T19:24:10.780Z,12.33
2019-05-01T19:26:42.569Z,8.45
2019-05-01T19:29:09.814Z,7.80
2019-05-01T19:31:38.337Z,7.87
2019-05-01T19:34:06.913Z,9.00
2019-05-01T19:36:35.468Z,9.85
2019-05-01T19:39:06.927Z,10.23
2019-05-01T19:41:38.194Z,10.03
2019-05-01T19:44:07.162Z,9.60
2019-05-01T19:46:35.679Z,10.85
2019-05-01T19:49:04.273Z,9.75
2019-05-01T19:51:33.246Z,8.30
2019-05-01T19:54:01.886Z,8.58
2019-05-01T19:56:30.414Z,8.65
2019-05-01T19:58:58.915Z,8.85
2019-05-01T20:01:27.880Z,9.85
2019-05-01T20:03:56.377Z,6.87
2019-05-01T20:06:24.914Z,6.47
2019-05-01T20:08:53.368Z,9.20
2019-05-01T20:11:21.897Z,7.53
2019-05-01T20:13:50.428Z,6.53
2019-05-01T20:16:19.390Z,6.72
2019-05-01T20:18:48.054Z,10.10
2019-05-01T20:21:16.572Z,7.80
2019-05-01T20:23:45.117Z,6.72
2019-05-01T20:26:13.665Z,9.93
2019-05-01T20:28:42.177Z,8.40
2019-05-01T20:31:10.625Z,7.90
2019-05-01T20:33:43.923Z,9.15
2019-05-01T20:36:09.339Z,9.18
2019-05-01T20:38:37.886Z,7.92
2019-05-01T20:41:10.353Z,7.75
2019-05-01T20:43:38.041Z,7.33
2019-05-01T20:46:07.291Z,9.00
2019-05-01T20:48:38.425Z,7.62
2019-05-01T20:51:07.268Z,7.87
2019-05-01T20:53:35.734Z,8.20
2019-05-01T20:56:05.947Z,8.68
2019-05-01T20:58:34.475Z,8.68
2019-05-01T21:01:04.010Z,10.28
2019-05-01T21:03:32.564Z,7.53
2019-05-01T21:06:07.907Z,10.23
2019-05-01T21:08:39.252Z,7.58
2019-05-01T21:11:11.097Z,7.85
2019-05-01T21:13:39.203Z,11.45
2019-05-01T21:16:07.617Z,6.75
2019-05-01T21:18:36.066Z,8.93
2019-05-01T21:21:04.477Z,8.88
2019-05-01T21:23:33.441Z,7.30
2019-05-01T21:26:03.807Z,7.28
2019-05-01T21:28:33.916Z,7.87
2019-05-01T21:31:03.921Z,8.43
2019-05-01T21:33:33.937Z,7.62
2019-05-01T21:36:04.858Z,8.38
2019-05-01T21:38:33.097Z,7.12
2019-05-01T21:41:02.792Z,7.80
2019-05-01T21:43:33.270Z,7.60
2019-05-01T21:46:03.801Z,7.97
2019-05-01T21:48:33.382Z,8.20
2019-05-01T21:51:05.902Z,7.72
2019-05-01T21:53:32.780Z,7.05
2019-05-01T21:56:02.189Z,7.80
2019-05-01T21:58:33.398Z,9.25
2019-05-01T22:01:01.798Z,7.10
2019-05-01T22:03:30.244Z,9.05
2019-05-01T22:05:58.698Z,7.75
2019-05-01T22:08:27.788Z,8.13
2019-05-01T22:10:57.688Z,9.73
2019-05-01T22:13:26.806Z,9.15
2019-05-01T22:16:03.022Z,11.75
2019-05-01T22:18:36.260Z,10.38
2019-05-01T22:21:06.705Z,8.00
2019-05-01T22:23:55.050Z,7.55
2019-05-01T22:26:24.037Z,7.60
2019-05-01T22:28:54.948Z,6.97
2019-05-01T22:31:40.992Z,9.55
2019-05-01T22:34:27.464Z,7.15
2019-05-01T22:36:58.683Z,6.78
2019-05-01T22:39:29.095Z,7.70
2019-05-01T22:41:57.598Z,7.55
2019-05-01T22:44:26.079Z,7.78
2019-05-01T22:46:54.613Z,7.25
2019-05-01T22:49:23.183Z,7.90
2019-05-01T22:51:51.588Z,7.75
2019-05-01T22:54:20.212Z,7.65
2019-05-01T22:56:48.923Z,8.28
2019-05-01T22:59:17.342Z,9.58
2019-05-01T23:01:49.287Z,9.15
2019-05-01T23:04:18.995Z,8.95
2019-05-01T23:06:47.567Z,8.48
2019-05-01T23:09:17.518Z,8.45
2019-05-01T23:11:47.023Z,7.92
2019-05-01T23:14:17.541Z,9.18
2019-05-01T23:16:48.060Z,7.95
2019-05-01T23:19:16.545Z,8.43
2019-05-01T23:21:45.801Z,10.03
2019-05-01T23:24:15.384Z,7.85
2019-05-01T23:26:48.001Z,7.28
2019-05-01T23:29:14.181Z,7.97
2019-05-01T23:31:42.670Z,9.63
2019-05-01T23:34:11.164Z,7.60
2019-05-01T23:36:39.679Z,9.03
2019-05-01T23:39:09.203Z,7.50
2019-05-01T23:41:45.508Z,8.78
2019-05-01T23:44:08.210Z,7.65
2019-05-01T23:46:36.626Z,8.98
2019-05-01T23:49:05.140Z,9.00
2019-05-01T23:51:33.554Z,7.97
2019-05-01T23:54:02.006Z,9.63
2019-05-01T23:56:31.180Z,8.73
2019-05-01T23:59:00.610Z,8.30
